Provider III — WDF9619 — position and weather

sailwx.info

Track history (hours):
 
Tides and Currents Weather Stations Pressure Air Temp Water Temp Dewpoint Dewpoint Depression Visibility Wind Speed Wind Dir Waves Ship Positions

Provider III

Owner: Thirty Fathom Fish Corp, Barnegat Light, NJ. More information available from US FCC via Universal Licensing System and Coast Guard Vessel Documentation Center.

Last reported at 2018-May-25 23:14 UTC. Time now 2018-May-26 04:09 UTC.
Position N 39°45' W 074°07'.

Length 16 m.

Type: Fishing. MMSI: 367507050.

Date/timePositionNaut miles runAvg speedWind from/ knotsBaromVisibWave heightAir tempDewpointWater temp
2018-May-25 23:14N 39°45' W 074°07'0 0.0
2018-May-25 20:56N 39°45' W 074°07'0 0.0
2018-May-25 18:08N 39°45' W 074°07'0 0.0
2018-May-25 13:14N 39°45' W 074°07'0 0.0
2018-May-25 12:02N 39°45' W 074°07'0 0.1
2018-May-25 10:24N 39°45' W 074°07'2 5.0
2018-May-25 09:56N 39°45' W 074°04'5 8.3
2018-May-25 09:22N 39°40' W 074°04'7 8.1
2018-May-25 08:33N 39°34' W 074°03'0 8.0
2018-May-25 08:30N 39°33' W 074°03'4 7.8
2018-May-25 08:00N 39°29' W 074°03'34 8.0
2018-May-25 03:47N 38°56' W 074°01'2 8.3
2018-May-25 03:29N 38°53' W 074°01'4 8.2
2018-May-25 03:00N 38°49' W 074°01'1 1.6
2018-May-25 02:30N 38°49' W 074°01'52 4.0
2018-May-24 13:36N 39°40' W 074°03'6 0.9
2018-May-24 07:35N 39°45' W 074°07'0 0.0
2018-May-24 07:29N 39°45' W 074°07'0 0.0
2018-May-24 06:47N 39°45' W 074°07'0 0.0
2018-May-24 06:23N 39°45' W 074°07'0 0.0
2018-May-24 02:11N 39°45' W 074°07'0 0.0
2018-May-24 01:59N 39°45' W 074°07'0 0.0
2018-May-23 23:47N 39°45' W 074°07'0 0.0
2018-May-23 23:17N 39°45' W 074°07'0 0.0
2018-May-23 22:41N 39°45' W 074°07'0 0.0
2018-May-23 22:23N 39°45' W 074°07'0 0.0
2018-May-23 18:59N 39°45' W 074°07'0 0.0
2018-May-23 18:29N 39°45' W 074°07'0 0.0
2018-May-23 14:08N 39°45' W 074°07'0 0.0
2018-May-23 11:49N 39°45' W 074°07'7 0.3
2018-May-22 13:28N 39°39' W 074°02'4 8.5
2018-May-22 13:00N 39°43' W 074°03'3 6.5
2018-May-22 12:28N 39°46' W 074°07'1 0.5
2018-May-22 11:13N 39°45' W 074°07'1 2.4
2018-May-22 10:59N 39°46' W 074°07'2 5.0
2018-May-22 10:31N 39°45' W 074°04'4 7.8
2018-May-22 10:00N 39°41' W 074°02'4 7.6
2018-May-22 09:28N 39°37' W 074°03'3 7.5
2018-May-22 09:00N 39°34' W 074°02'7 0.4
2018-May-21 13:17N 39°41' W 074°03'3 8.5
2018-May-21 12:59N 39°43' W 074°04'3 2.0
2018-May-21 11:28N 39°45' W 074°07'0 0.0
2018-May-21 08:28N 39°45' W 074°07'0 0.0
2018-May-21 07:58N 39°45' W 074°07'0 0.0
2018-May-21 05:46N 39°45' W 074°07'0 0.0
2018-May-21 04:22N 39°45' W 074°07'0 0.0
2018-May-21 03:58N 39°45' W 074°07'0 0.0
2018-May-21 01:46N 39°45' W 074°07'0 0.0
2018-May-21 01:28N 39°45' W 074°07'0 0.0
2018-May-21 00:52N 39°45' W 074°07'0 0.0
2018-May-21 00:22N 39°45' W 074°07'0 0.0
2018-May-20 23:58N 39°45' W 074°07'0 0.0
2018-May-20 22:34N 39°45' W 074°07'0 0.0
2018-May-20 22:22N 39°45' W 074°07'0 0.0
2018-May-20 21:52N 39°45' W 074°07'0 0.0
2018-May-20 19:10N 39°45' W 074°07'0 0.0
2018-May-20 17:40N 39°45' W 074°07'0 0.0
2018-May-20 17:10N 39°45' W 074°07'0 0.0
2018-May-20 16:52N 39°45' W 074°07'0 0.0
2018-May-20 12:52N 39°45' W 074°07'0 0.0
2018-May-20 10:52N 39°45' W 074°07'0 0.0
2018-May-20 10:16N 39°45' W 074°07'0 0.0
2018-May-20 06:52N 39°45' W 074°07'0 0.0
2018-May-20 06:28N 39°45' W 074°07'0 0.0
2018-May-19 19:20N 39°45' W 074°07'0 0.0
2018-May-19 18:13N 39°45' W 074°07'0 0.0
2018-May-19 16:26N 39°45' W 074°07'0 0.0
2018-May-19 14:32N 39°45' W 074°07'0 0.0
2018-May-19 14:26N 39°45' W 074°07'0 0.0
2018-May-19 12:20N 39°45' W 074°07'0 0.0
2018-May-19 09:08N 39°45' W 074°07'0 0.0
2018-May-19 08:38N 39°45' W 074°07'0 0.0
2018-May-19 08:17N 39°45' W 074°07'0 0.0
2018-May-19 07:53N 39°45' W 074°07'0 0.0
2018-May-19 07:29N 39°45' W 074°07'0 0.0
2018-May-19 06:47N 39°45' W 074°07'0 0.0
2018-May-19 06:23N 39°45' W 074°07'0 0.0
2018-May-19 05:53N 39°45' W 074°07'0 0.0
2018-May-19 05:29N 39°45' W 074°07'0 0.0
2018-May-19 03:50N 39°45' W 074°07'0 0.0
2018-May-18 17:56N 39°45' W 074°07'0 0.0
2018-May-18 16:02N 39°45' W 074°07'0 0.0
2018-May-18 15:32N 39°45' W 074°07'0 0.0
2018-May-18 14:14N 39°45' W 074°07'0 0.0
2018-May-18 13:32N 39°45' W 074°07'0 0.0
2018-May-18 12:26N 39°45' W 074°07'0 0.0
2018-May-18 11:02N 39°45' W 074°07'0 0.0
2018-May-18 09:20N 39°45' W 074°07'0 0.0
2018-May-18 08:50N 39°45' W 074°07'0 0.0
2018-May-18 08:26N 39°45' W 074°07'0 0.0
2018-May-18 06:50N 39°45' W 074°07'0 0.0
2018-May-18 04:32N 39°45' W 074°07'0 0.0
2018-May-18 04:26N 39°45' W 074°07'0 0.0
2018-May-18 03:56N 39°45' W 074°07'0 0.0
2018-May-18 03:20N 39°45' W 074°07'0 0.0
2018-May-18 02:56N 39°45' W 074°07'0 0.0
2018-May-18 02:29N 39°45' W 074°07'0 0.0
2018-May-18 01:11N 39°45' W 074°07'0 0.0
2018-May-17 22:59N 39°45' W 074°07'0 0.0
2018-May-17 20:47N 39°45' W 074°07'0 0.0
2018-May-17 20:17N 39°45' W 074°07'0 0.0
2018-May-17 19:41N 39°45' W 074°07'0 0.0
2018-May-17 19:29N 39°45' W 074°07'0 0.0
2018-May-17 18:53N 39°45' W 074°07'0 0.0
2018-May-17 18:11N 39°45' W 074°07'0 0.0
2018-May-17 17:53N 39°45' W 074°07'0 0.0
2018-May-17 17:29N 39°45' W 074°07'0 0.0
2018-May-17 16:59N 39°45' W 074°07'0 0.0
2018-May-17 16:17N 39°45' W 074°07'0 0.0
2018-May-17 14:47N 39°45' W 074°07'0 0.0
2018-May-17 14:29N 39°45' W 074°07'0 0.0
2018-May-17 13:53N 39°45' W 074°07'0 0.0
2018-May-17 13:29N 39°45' W 074°07'0 0.0
2018-May-17 12:23N 39°45' W 074°07'0 0.0
2018-May-17 11:53N 39°45' W 074°07'0 0.0
2018-May-17 10:47N 39°45' W 074°07'0 0.0
2018-May-17 10:29N 39°45' W 074°07'0 0.0
2018-May-17 09:47N 39°45' W 074°07'0 0.0
2018-May-17 09:23N 39°45' W 074°07'0 0.0
2018-May-17 08:53N 39°45' W 074°07'0 0.0
2018-May-17 08:05N 39°45' W 074°07'0 0.0
2018-May-17 07:05N 39°45' W 074°07'0 0.1
2018-May-17 06:59N 39°45' W 074°07'0 0.0
2018-May-17 06:23N 39°45' W 074°07'0 0.0
2018-May-17 05:59N 39°45' W 074°07'0 0.0
2018-May-17 05:17N 39°45' W 074°07'0 0.0
2018-May-17 04:59N 39°45' W 074°07'0 0.0
2018-May-17 03:23N 39°45' W 074°07'0 0.0
2018-May-17 02:59N 39°45' W 074°07'0 0.0
2018-May-17 02:23N 39°45' W 074°07'0 0.0
2018-May-17 01:59N 39°45' W 074°07'0 0.0
2018-May-17 01:11N 39°45' W 074°07'0 0.0
2018-May-17 00:59N 39°45' W 074°07'0 0.0
2018-May-17 00:05N 39°45' W 074°07'0 0.0
2018-May-16 23:41N 39°45' W 074°07'0 0.0
2018-May-16 22:23N 39°45' W 074°07'0 0.0
2018-May-16 21:47N 39°45' W 074°07'0 0.0
2018-May-16 21:29N 39°45' W 074°07'0 0.0
2018-May-16 20:59N 39°45' W 074°07'0 0.0
2018-May-16 20:17N 39°45' W 074°07'0 0.0
2018-May-16 19:53N 39°45' W 074°07'0 0.0
2018-May-16 18:53N 39°45' W 074°07'0 0.0
2018-May-16 17:59N 39°45' W 074°07'0 0.0
2018-May-16 16:47N 39°45' W 074°07'0 0.0
2018-May-16 16:23N 39°45' W 074°07'0 0.0
2018-May-16 15:53N 39°45' W 074°07'0 0.0
2018-May-16 15:17N 39°45' W 074°07'0 0.0
2018-May-16 14:53N 39°45' W 074°07'0 0.0
2018-May-16 14:17N 39°45' W 074°07'0 0.0
2018-May-16 13:59N 39°45' W 074°07'0 0.0
2018-May-16 13:23N 39°45' W 074°07'0 0.0
2018-May-16 12:11N 39°45' W 074°07'0 0.0
2018-May-16 11:53N 39°45' W 074°07'0 0.0
2018-May-16 11:23N 39°45' W 074°07'0 0.0
2018-May-16 10:53N 39°45' W 074°07'0 0.0
2018-May-16 10:29N 39°45' W 074°07'0 0.0
2018-May-16 09:47N 39°45' W 074°07'0 0.0
2018-May-16 09:23N 39°45' W 074°07'0 0.0
2018-May-16 08:53N 39°45' W 074°07'0 0.0
2018-May-16 07:59N 39°45' W 074°07'0 0.0
2018-May-16 06:53N 39°45' W 074°07'0 0.0
2018-May-16 06:23N 39°45' W 074°07'0 0.0
2018-May-16 05:59N 39°45' W 074°07'0 0.0
2018-May-16 04:29N 39°45' W 074°07'0 0.0
2018-May-16 03:59N 39°45' W 074°07'0 0.0
2018-May-16 03:17N 39°45' W 074°07'0 0.0
2018-May-16 02:17N 39°45' W 074°07'0 0.0
2018-May-16 01:41N 39°45' W 074°07'0 0.0
2018-May-16 01:29N 39°45' W 074°07'0 0.0
2018-May-16 00:53N 39°45' W 074°07'0 0.0
2018-May-15 23:53N 39°45' W 074°07'  
Track history (hours):
 
Tides and Currents Weather Stations Pressure Air Temp Water Temp Dewpoint Dewpoint Depression Visibility Wind Speed Wind Dir Waves Ship Positions

Provider III

Owner: Thirty Fathom Fish Corp, Barnegat Light, NJ. More information available from US FCC via Universal Licensing System and Coast Guard Vessel Documentation Center.

Last reported at 2018-May-25 23:14 UTC. Time now 2018-May-26 04:09 UTC.
Position N 39°45' W 074°07'.

Length 16 m.

Type: Fishing. MMSI: 367507050.

Date/timePositionNaut miles runAvg speedWind from/ knotsBaromVisibWave heightAir tempDewpointWater temp
2018-May-25 23:14N 39°45' W 074°07'0 0.0
2018-May-25 20:56N 39°45' W 074°07'0 0.0
2018-May-25 18:08N 39°45' W 074°07'0 0.0
2018-May-25 13:14N 39°45' W 074°07'0 0.0
2018-May-25 12:02N 39°45' W 074°07'0 0.1
2018-May-25 10:24N 39°45' W 074°07'2 5.0
2018-May-25 09:56N 39°45' W 074°04'5 8.3
2018-May-25 09:22N 39°40' W 074°04'7 8.1
2018-May-25 08:33N 39°34' W 074°03'0 8.0
2018-May-25 08:30N 39°33' W 074°03'4 7.8
2018-May-25 08:00N 39°29' W 074°03'34 8.0
2018-May-25 03:47N 38°56' W 074°01'2 8.3
2018-May-25 03:29N 38°53' W 074°01'4 8.2
2018-May-25 03:00N 38°49' W 074°01'1 1.6
2018-May-25 02:30N 38°49' W 074°01'52 4.0
2018-May-24 13:36N 39°40' W 074°03'6 0.9
2018-May-24 07:35N 39°45' W 074°07'0 0.0
2018-May-24 07:29N 39°45' W 074°07'0 0.0
2018-May-24 06:47N 39°45' W 074°07'0 0.0
2018-May-24 06:23N 39°45' W 074°07'0 0.0
2018-May-24 02:11N 39°45' W 074°07'0 0.0
2018-May-24 01:59N 39°45' W 074°07'0 0.0
2018-May-23 23:47N 39°45' W 074°07'0 0.0
2018-May-23 23:17N 39°45' W 074°07'0 0.0
2018-May-23 22:41N 39°45' W 074°07'0 0.0
2018-May-23 22:23N 39°45' W 074°07'0 0.0
2018-May-23 18:59N 39°45' W 074°07'0 0.0
2018-May-23 18:29N 39°45' W 074°07'0 0.0
2018-May-23 14:08N 39°45' W 074°07'0 0.0
2018-May-23 11:49N 39°45' W 074°07'7 0.3
2018-May-22 13:28N 39°39' W 074°02'4 8.5
2018-May-22 13:00N 39°43' W 074°03'3 6.5
2018-May-22 12:28N 39°46' W 074°07'1 0.5
2018-May-22 11:13N 39°45' W 074°07'1 2.4
2018-May-22 10:59N 39°46' W 074°07'2 5.0
2018-May-22 10:31N 39°45' W 074°04'4 7.8
2018-May-22 10:00N 39°41' W 074°02'4 7.6
2018-May-22 09:28N 39°37' W 074°03'3 7.5
2018-May-22 09:00N 39°34' W 074°02'7 0.4
2018-May-21 13:17N 39°41' W 074°03'3 8.5
2018-May-21 12:59N 39°43' W 074°04'3 2.0
2018-May-21 11:28N 39°45' W 074°07'0 0.0
2018-May-21 08:28N 39°45' W 074°07'0 0.0
2018-May-21 07:58N 39°45' W 074°07'0 0.0
2018-May-21 05:46N 39°45' W 074°07'0 0.0
2018-May-21 04:22N 39°45' W 074°07'0 0.0
2018-May-21 03:58N 39°45' W 074°07'0 0.0
2018-May-21 01:46N 39°45' W 074°07'0 0.0
2018-May-21 01:28N 39°45' W 074°07'0 0.0
2018-May-21 00:52N 39°45' W 074°07'0 0.0
2018-May-21 00:22N 39°45' W 074°07'0 0.0
2018-May-20 23:58N 39°45' W 074°07'0 0.0
2018-May-20 22:34N 39°45' W 074°07'0 0.0
2018-May-20 22:22N 39°45' W 074°07'0 0.0
2018-May-20 21:52N 39°45' W 074°07'0 0.0
2018-May-20 19:10N 39°45' W 074°07'0 0.0
2018-May-20 17:40N 39°45' W 074°07'0 0.0
2018-May-20 17:10N 39°45' W 074°07'0 0.0
2018-May-20 16:52N 39°45' W 074°07'0 0.0
2018-May-20 12:52N 39°45' W 074°07'0 0.0
2018-May-20 10:52N 39°45' W 074°07'0 0.0
2018-May-20 10:16N 39°45' W 074°07'0 0.0
2018-May-20 06:52N 39°45' W 074°07'0 0.0
2018-May-20 06:28N 39°45' W 074°07'0 0.0
2018-May-19 19:20N 39°45' W 074°07'0 0.0
2018-May-19 18:13N 39°45' W 074°07'0 0.0
2018-May-19 16:26N 39°45' W 074°07'0 0.0
2018-May-19 14:32N 39°45' W 074°07'0 0.0
2018-May-19 14:26N 39°45' W 074°07'0 0.0
2018-May-19 12:20N 39°45' W 074°07'0 0.0
2018-May-19 09:08N 39°45' W 074°07'0 0.0
2018-May-19 08:38N 39°45' W 074°07'0 0.0
2018-May-19 08:17N 39°45' W 074°07'0 0.0
2018-May-19 07:53N 39°45' W 074°07'0 0.0
2018-May-19 07:29N 39°45' W 074°07'0 0.0
2018-May-19 06:47N 39°45' W 074°07'0 0.0
2018-May-19 06:23N 39°45' W 074°07'0 0.0
2018-May-19 05:53N 39°45' W 074°07'0 0.0
2018-May-19 05:29N 39°45' W 074°07'0 0.0
2018-May-19 03:50N 39°45' W 074°07'0 0.0
2018-May-18 17:56N 39°45' W 074°07'0 0.0
2018-May-18 16:02N 39°45' W 074°07'0 0.0
2018-May-18 15:32N 39°45' W 074°07'0 0.0
2018-May-18 14:14N 39°45' W 074°07'0 0.0
2018-May-18 13:32N 39°45' W 074°07'0 0.0
2018-May-18 12:26N 39°45' W 074°07'0 0.0
2018-May-18 11:02N 39°45' W 074°07'0 0.0
2018-May-18 09:20N 39°45' W 074°07'0 0.0
2018-May-18 08:50N 39°45' W 074°07'0 0.0
2018-May-18 08:26N 39°45' W 074°07'0 0.0
2018-May-18 06:50N 39°45' W 074°07'0 0.0
2018-May-18 04:32N 39°45' W 074°07'0 0.0
2018-May-18 04:26N 39°45' W 074°07'0 0.0
2018-May-18 03:56N 39°45' W 074°07'0 0.0
2018-May-18 03:20N 39°45' W 074°07'0 0.0
2018-May-18 02:56N 39°45' W 074°07'0 0.0
2018-May-18 02:29N 39°45' W 074°07'0 0.0
2018-May-18 01:11N 39°45' W 074°07'0 0.0
2018-May-17 22:59N 39°45' W 074°07'0 0.0
2018-May-17 20:47N 39°45' W 074°07'0 0.0
2018-May-17 20:17N 39°45' W 074°07'0 0.0
2018-May-17 19:41N 39°45' W 074°07'0 0.0
2018-May-17 19:29N 39°45' W 074°07'0 0.0
2018-May-17 18:53N 39°45' W 074°07'0 0.0
2018-May-17 18:11N 39°45' W 074°07'0 0.0
2018-May-17 17:53N 39°45' W 074°07'0 0.0
2018-May-17 17:29N 39°45' W 074°07'0 0.0
2018-May-17 16:59N 39°45' W 074°07'0 0.0
2018-May-17 16:17N 39°45' W 074°07'0 0.0
2018-May-17 14:47N 39°45' W 074°07'0 0.0
2018-May-17 14:29N 39°45' W 074°07'0 0.0
2018-May-17 13:53N 39°45' W 074°07'0 0.0
2018-May-17 13:29N 39°45' W 074°07'0 0.0
2018-May-17 12:23N 39°45' W 074°07'0 0.0
2018-May-17 11:53N 39°45' W 074°07'0 0.0
2018-May-17 10:47N 39°45' W 074°07'0 0.0
2018-May-17 10:29N 39°45' W 074°07'0 0.0
2018-May-17 09:47N 39°45' W 074°07'0 0.0
2018-May-17 09:23N 39°45' W 074°07'0 0.0
2018-May-17 08:53N 39°45' W 074°07'0 0.0
2018-May-17 08:05N 39°45' W 074°07'0 0.0
2018-May-17 07:05N 39°45' W 074°07'0 0.1
2018-May-17 06:59N 39°45' W 074°07'0 0.0
2018-May-17 06:23N 39°45' W 074°07'0 0.0
2018-May-17 05:59N 39°45' W 074°07'0 0.0
2018-May-17 05:17N 39°45' W 074°07'0 0.0
2018-May-17 04:59N 39°45' W 074°07'0 0.0
2018-May-17 03:23N 39°45' W 074°07'0 0.0
2018-May-17 02:59N 39°45' W 074°07'0 0.0
2018-May-17 02:23N 39°45' W 074°07'0 0.0
2018-May-17 01:59N 39°45' W 074°07'0 0.0
2018-May-17 01:11N 39°45' W 074°07'0 0.0
2018-May-17 00:59N 39°45' W 074°07'0 0.0
2018-May-17 00:05N 39°45' W 074°07'0 0.0
2018-May-16 23:41N 39°45' W 074°07'0 0.0
2018-May-16 22:23N 39°45' W 074°07'0 0.0
2018-May-16 21:47N 39°45' W 074°07'0 0.0
2018-May-16 21:29N 39°45' W 074°07'0 0.0
2018-May-16 20:59N 39°45' W 074°07'0 0.0
2018-May-16 20:17N 39°45' W 074°07'0 0.0
2018-May-16 19:53N 39°45' W 074°07'0 0.0
2018-May-16 18:53N 39°45' W 074°07'0 0.0
2018-May-16 17:59N 39°45' W 074°07'0 0.0
2018-May-16 16:47N 39°45' W 074°07'0 0.0
2018-May-16 16:23N 39°45' W 074°07'0 0.0
2018-May-16 15:53N 39°45' W 074°07'0 0.0
2018-May-16 15:17N 39°45' W 074°07'0 0.0
2018-May-16 14:53N 39°45' W 074°07'0 0.0
2018-May-16 14:17N 39°45' W 074°07'0 0.0
2018-May-16 13:59N 39°45' W 074°07'0 0.0
2018-May-16 13:23N 39°45' W 074°07'0 0.0
2018-May-16 12:11N 39°45' W 074°07'0 0.0
2018-May-16 11:53N 39°45' W 074°07'0 0.0
2018-May-16 11:23N 39°45' W 074°07'0 0.0
2018-May-16 10:53N 39°45' W 074°07'0 0.0
2018-May-16 10:29N 39°45' W 074°07'0 0.0
2018-May-16 09:47N 39°45' W 074°07'0 0.0
2018-May-16 09:23N 39°45' W 074°07'0 0.0
2018-May-16 08:53N 39°45' W 074°07'0 0.0
2018-May-16 07:59N 39°45' W 074°07'0 0.0
2018-May-16 06:53N 39°45' W 074°07'0 0.0
2018-May-16 06:23N 39°45' W 074°07'0 0.0
2018-May-16 05:59N 39°45' W 074°07'0 0.0
2018-May-16 04:29N 39°45' W 074°07'0 0.0
2018-May-16 03:59N 39°45' W 074°07'0 0.0
2018-May-16 03:17N 39°45' W 074°07'0 0.0
2018-May-16 02:17N 39°45' W 074°07'0 0.0
2018-May-16 01:41N 39°45' W 074°07'0 0.0
2018-May-16 01:29N 39°45' W 074°07'0 0.0
2018-May-16 00:53N 39°45' W 074°07'0 0.0
2018-May-15 23:53N 39°45' W 074°07'  

Dump ship's entire track history